Lead Hill, Arkansas
Current Conditions -  °F | °C
As of 12:53 AM on Thursday 23 Oct 2014 (Local Time) from KHRO Reporting Station
Clear Clear  
Wind Chill: 50°   Ceiling: Unl
Heat Index: 50°   Visibility: 10mi
Dew Point: 48°   Wind: 7mph
Humidity: 93%   Direction: 120°ESE
Pressure: 30.19"   Gusts: NA
Location:  36.42°N, 92.91°W
Report Text: KHRO 230553Z AUTO 12006KT 10SM CLR 10/09 A3019 RMK AO2 SLP216 T01000089 10156 20089 402110078 58003
Loading
Personal Weather Stations






























Interactive Weather Map
Tropical Storm Tracking
New forecast layout! Learn more

10-Day Weather Forecast

Advertisements
Track Severe Weather on mobile